sensor_id;sensor_type;location;lat;lon;timestamp;pressure;altitude;pressure_sealevel;temperature;humidity
64230;BME280;50547;49.498;0.092;2022-12-08T00:01:40;1010;;;8.47;74.89
64230;BME280;50547;49.498;0.092;2022-12-08T00:04:09;1010;;;8.45;75.25
64230;BME280;50547;49.498;0.092;2022-12-08T00:06:37;1010;;;8.39;75.23
64230;BME280;50547;49.498;0.092;2022-12-08T00:09:04;1010;;;8.23;75.21
64230;BME280;50547;49.498;0.092;2022-12-08T00:11:33;1010;;;7.75;77.22
64230;BME280;50547;49.498;0.092;2022-12-08T00:14:02;1010;;;6.81;82.02
64230;BME280;50547;49.498;0.092;2022-12-08T00:16:31;1010;;;6.58;82.71
64230;BME280;50547;49.498;0.092;2022-12-08T00:19:01;1010;;;6.27;83.03
64230;BME280;50547;49.498;0.092;2022-12-08T00:21:30;1010;;;6.05;83.54
64230;BME280;50547;49.498;0.092;2022-12-08T00:23:55;1010;;;6.04;83.03
64230;BME280;50547;49.498;0.092;2022-12-08T00:26:25;1010;;;6.09;82.64
64230;BME280;50547;49.498;0.092;2022-12-08T00:28:54;1010;;;6.23;82.06
64230;BME280;50547;49.498;0.092;2022-12-08T00:31:23;1010;;;6.37;81.59
64230;BME280;50547;49.498;0.092;2022-12-08T00:33:53;1010;;;6.45;81.60
64230;BME280;50547;49.498;0.092;2022-12-08T00:36:22;1010;;;6.53;81.58
64230;BME280;50547;49.498;0.092;2022-12-08T00:38:47;1010;;;6.50;81.75
64230;BME280;50547;49.498;0.092;2022-12-08T00:41:19;1010;;;6.49;81.54
64230;BME280;50547;49.498;0.092;2022-12-08T00:43:48;1010;;;6.48;81.64
64230;BME280;50547;49.498;0.092;2022-12-08T00:46:17;1010;;;6.43;81.89
64230;BME280;50547;49.498;0.092;2022-12-08T00:48:43;1010;;;6.48;81.58
64230;BME280;50547;49.498;0.092;2022-12-08T00:51:12;1010;;;6.46;81.50
64230;BME280;50547;49.498;0.092;2022-12-08T00:53:42;1010;;;6.54;81.20
64230;BME280;50547;49.498;0.092;2022-12-08T00:56:08;1010;;;6.73;80.58
64230;BME280;50547;49.498;0.092;2022-12-08T00:58:37;1009;;;6.86;80.15
64230;BME280;50547;49.498;0.092;2022-12-08T01:01:09;1009;;;7.09;79.71
64230;BME280;50547;49.498;0.092;2022-12-08T01:03:38;1009;;;7.19;79.65
64230;BME280;50547;49.498;0.092;2022-12-08T01:06:05;1009;;;7.31;79.74
64230;BME280;50547;49.498;0.092;2022-12-08T01:08:36;1009;;;7.53;79.40
64230;BME280;50547;49.498;0.092;2022-12-08T01:11:07;1009;;;7.68;79.45
64230;BME280;50547;49.498;0.092;2022-12-08T01:13:36;1009;;;7.76;79.43
64230;BME280;50547;49.498;0.092;2022-12-08T01:16:06;1009;;;7.84;79.48
64230;BME280;50547;49.498;0.092;2022-12-08T01:18:35;1009;;;7.81;79.52
64230;BME280;50547;49.498;0.092;2022-12-08T01:21:06;1009;;;7.63;79.84
64230;BME280;50547;49.498;0.092;2022-12-08T01:23:36;1009;;;7.68;79.76
64230;BME280;50547;49.498;0.092;2022-12-08T01:26:07;1009;;;7.66;79.69
64230;BME280;50547;49.498;0.092;2022-12-08T01:28:37;1009;;;7.42;80.09
64230;BME280;50547;49.498;0.092;2022-12-08T01:31:10;1009;;;7.43;79.89
64230;BME280;50547;49.498;0.092;2022-12-08T01:33:40;1009;;;7.44;79.76
64230;BME280;50547;49.498;0.092;2022-12-08T01:36:18;1009;;;7.48;79.56
64230;BME280;50547;49.498;0.092;2022-12-08T01:38:48;1009;;;7.44;79.75
64230;BME280;50547;49.498;0.092;2022-12-08T01:41:20;1009;;;7.43;79.70
64230;BME280;50547;49.498;0.092;2022-12-08T01:43:57;1009;;;7.37;80.00
64230;BME280;50547;49.498;0.092;2022-12-08T01:46:28;1009;;;7.40;79.89
64230;BME280;50547;49.498;0.092;2022-12-08T01:49:02;1009;;;7.71;78.90
64230;BME280;50547;49.498;0.092;2022-12-08T01:51:34;1009;;;7.64;79.30
64230;BME280;50547;49.498;0.092;2022-12-08T01:54:06;1009;;;7.81;78.96
64230;BME280;50547;49.498;0.092;2022-12-08T01:56:40;1009;;;7.81;79.06
64230;BME280;50547;49.498;0.092;2022-12-08T01:59:10;1009;;;7.97;78.74
64230;BME280;50547;49.498;0.092;2022-12-08T02:01:40;1009;;;8.08;78.42
64230;BME280;50547;49.498;0.092;2022-12-08T02:04:09;1009;;;8.18;78.40
64230;BME280;50547;49.498;0.092;2022-12-08T02:06:41;1009;;;8.25;78.41
64230;BME280;50547;49.498;0.092;2022-12-08T02:09:11;1009;;;8.36;78.36
64230;BME280;50547;49.498;0.092;2022-12-08T02:11:40;1009;;;8.21;78.59
64230;BME280;50547;49.498;0.092;2022-12-08T02:14:12;1009;;;8.36;78.21
64230;BME280;50547;49.498;0.092;2022-12-08T02:16:47;1009;;;8.28;78.30
64230;BME280;50547;49.498;0.092;2022-12-08T02:19:36;1009;;;8.27;78.24
64230;BME280;50547;49.498;0.092;2022-12-08T02:22:13;1009;;;7.97;78.90
64230;BME280;50547;49.498;0.092;2022-12-08T02:24:49;1009;;;7.76;79.47
64230;BME280;50547;49.498;0.092;2022-12-08T02:27:32;1009;;;7.44;80.22
64230;BME280;50547;49.498;0.092;2022-12-08T02:30:10;1009;;;7.31;80.35
64230;BME280;50547;49.498;0.092;2022-12-08T02:37:39;1009;;;7.52;78.76
64230;BME280;50547;49.498;0.092;2022-12-08T02:40:14;1009;;;7.77;78.06
64230;BME280;50547;49.498;0.092;2022-12-08T02:42:47;1009;;;7.89;77.96
64230;BME280;50547;49.498;0.092;2022-12-08T02:45:27;1009;;;8.05;77.88
64230;BME280;50547;49.498;0.092;2022-12-08T02:47:58;1009;;;7.93;78.35
64230;BME280;50547;49.498;0.092;2022-12-08T02:50:28;1009;;;8.02;78.19
64230;BME280;50547;49.498;0.092;2022-12-08T02:52:57;1008;;;8.11;78.06
64230;BME280;50547;49.498;0.092;2022-12-08T02:55:28;1008;;;8.25;77.72
64230;BME280;50547;49.498;0.092;2022-12-08T02:58:17;1008;;;8.21;77.85
64230;BME280;50547;49.498;0.092;2022-12-08T03:01:04;1008;;;8.14;77.98
64230;BME280;50547;49.498;0.092;2022-12-08T03:03:44;1008;;;8.14;77.96
64230;BME280;50547;49.498;0.092;2022-12-08T03:06:23;1008;;;8.24;77.86
64230;BME280;50547;49.498;0.092;2022-12-08T03:08:59;1008;;;8.13;78.16
64230;BME280;50547;49.498;0.092;2022-12-08T03:11:36;1008;;;7.76;79.24
64230;BME280;50547;49.498;0.092;2022-12-08T03:14:09;1008;;;7.61;79.66
64230;BME280;50547;49.498;0.092;2022-12-08T03:16:44;1008;;;7.49;79.96
64230;BME280;50547;49.498;0.092;2022-12-08T03:19:17;1008;;;7.53;79.55
64230;BME280;50547;49.498;0.092;2022-12-08T03:21:49;1008;;;7.52;79.63
64230;BME280;50547;49.498;0.092;2022-12-08T03:24:21;1008;;;7.49;79.74
64230;BME280;50547;49.498;0.092;2022-12-08T03:26:55;1008;;;7.58;79.38
64230;BME280;50547;49.498;0.092;2022-12-08T03:29:25;1008;;;7.75;78.88
64230;BME280;50547;49.498;0.092;2022-12-08T03:31:57;1008;;;7.81;78.75
64230;BME280;50547;49.498;0.092;2022-12-08T03:34:28;1008;;;7.77;78.87
64230;BME280;50547;49.498;0.092;2022-12-08T03:36:59;1008;;;7.82;78.24
64230;BME280;50547;49.498;0.092;2022-12-08T03:39:29;1008;;;7.85;77.96
64230;BME280;50547;49.498;0.092;2022-12-08T03:41:58;1008;;;7.91;77.75
64230;BME280;50547;49.498;0.092;2022-12-08T03:44:27;1008;;;7.71;79.02
64230;BME280;50547;49.498;0.092;2022-12-08T03:46:56;1008;;;7.65;79.51
64230;BME280;50547;49.498;0.092;2022-12-08T03:49:26;1008;;;7.56;79.92
64230;BME280;50547;49.498;0.092;2022-12-08T03:51:55;1008;;;7.46;80.31
64230;BME280;50547;49.498;0.092;2022-12-08T03:54:24;1008;;;7.47;79.90
64230;BME280;50547;49.498;0.092;2022-12-08T03:56:53;1008;;;7.65;79.11
64230;BME280;50547;49.498;0.092;2022-12-08T03:59:22;1008;;;7.75;78.65
64230;BME280;50547;49.498;0.092;2022-12-08T04:01:52;1008;;;7.75;78.67
64230;BME280;50547;49.498;0.092;2022-12-08T04:04:21;1008;;;7.71;78.64
64230;BME280;50547;49.498;0.092;2022-12-08T04:06:50;1008;;;7.71;78.49
64230;BME280;50547;49.498;0.092;2022-12-08T04:09:19;1008;;;7.92;77.90
64230;BME280;50547;49.498;0.092;2022-12-08T04:11:47;1008;;;7.93;77.87
64230;BME280;50547;49.498;0.092;2022-12-08T04:14:17;1007;;;7.84;78.17
64230;BME280;50547;49.498;0.092;2022-12-08T04:16:46;1007;;;7.99;77.63
64230;BME280;50547;49.498;0.092;2022-12-08T04:19:15;1007;;;8.06;77.49
64230;BME280;50547;49.498;0.092;2022-12-08T04:21:44;1007;;;8.24;77.10
64230;BME280;50547;49.498;0.092;2022-12-08T04:24:14;1007;;;8.27;76.98
64230;BME280;50547;49.498;0.092;2022-12-08T04:26:43;1007;;;8.17;77.24
64230;BME280;50547;49.498;0.092;2022-12-08T04:29:13;1007;;;7.93;78.09
64230;BME280;50547;49.498;0.092;2022-12-08T04:31:42;1007;;;7.89;78.16
64230;BME280;50547;49.498;0.092;2022-12-08T04:34:08;1007;;;7.46;80.09
64230;BME280;50547;49.498;0.092;2022-12-08T04:36:37;1007;;;7.17;80.82
64230;BME280;50547;49.498;0.092;2022-12-08T04:39:07;1007;;;6.83;82.20
64230;BME280;50547;49.498;0.092;2022-12-08T04:41:36;1007;;;6.75;82.35
64230;BME280;50547;49.498;0.092;2022-12-08T04:44:05;1007;;;6.53;82.76
64230;BME280;50547;49.498;0.092;2022-12-08T04:46:35;1007;;;6.34;83.14
64230;BME280;50547;49.498;0.092;2022-12-08T04:49:04;1007;;;6.34;82.62
64230;BME280;50547;49.498;0.092;2022-12-08T04:51:34;1007;;;6.45;82.10
64230;BME280;50547;49.498;0.092;2022-12-08T04:54:03;1007;;;6.69;81.24
64230;BME280;50547;49.498;0.092;2022-12-08T04:56:33;1007;;;6.88;80.59
64230;BME280;50547;49.498;0.092;2022-12-08T04:59:02;1007;;;6.81;81.25
64230;BME280;50547;49.498;0.092;2022-12-08T05:01:32;1007;;;6.58;81.90
64230;BME280;50547;49.498;0.092;2022-12-08T05:04:01;1007;;;6.42;82.07
64230;BME280;50547;49.498;0.092;2022-12-08T05:06:31;1007;;;6.50;81.31
64230;BME280;50547;49.498;0.092;2022-12-08T05:09:00;1007;;;6.51;81.33
64230;BME280;50547;49.498;0.092;2022-12-08T05:11:30;1007;;;6.61;81.04
64230;BME280;50547;49.498;0.092;2022-12-08T05:13:59;1007;;;6.70;80.79
64230;BME280;50547;49.498;0.092;2022-12-08T05:16:28;1007;;;6.81;80.46
64230;BME280;50547;49.498;0.092;2022-12-08T05:18:58;1007;;;6.86;80.50
64230;BME280;50547;49.498;0.092;2022-12-08T05:21:27;1007;;;6.99;80.50
64230;BME280;50547;49.498;0.092;2022-12-08T05:23:57;1007;;;7.16;80.22
64230;BME280;50547;49.498;0.092;2022-12-08T05:26:26;1007;;;7.30;80.36
64230;BME280;50547;49.498;0.092;2022-12-08T05:28:56;1007;;;7.13;80.63
64230;BME280;50547;49.498;0.092;2022-12-08T05:31:25;1007;;;7.14;80.60
64230;BME280;50547;49.498;0.092;2022-12-08T05:33:55;1007;;;7.05;80.81
64230;BME280;50547;49.498;0.092;2022-12-08T05:36:24;1007;;;6.90;81.33
64230;BME280;50547;49.498;0.092;2022-12-08T05:38:56;1007;;;7.10;80.47
64230;BME280;50547;49.498;0.092;2022-12-08T05:41:25;1007;;;7.36;79.73
64230;BME280;50547;49.498;0.092;2022-12-08T05:43:55;1007;;;7.34;79.81
64230;BME280;50547;49.498;0.092;2022-12-08T05:46:29;1007;;;7.25;80.14
64230;BME280;50547;49.498;0.092;2022-12-08T05:48:59;1007;;;7.21;80.09
64230;BME280;50547;49.498;0.092;2022-12-08T05:51:29;1007;;;7.21;80.25
64230;BME280;50547;49.498;0.092;2022-12-08T05:53:58;1007;;;7.26;79.97
64230;BME280;50547;49.498;0.092;2022-12-08T05:56:28;1007;;;7.39;79.76
64230;BME280;50547;49.498;0.092;2022-12-08T05:58:57;1007;;;7.34;79.66
64230;BME280;50547;49.498;0.092;2022-12-08T06:01:28;1007;;;7.07;80.25
64230;BME280;50547;49.498;0.092;2022-12-08T06:04:00;1007;;;6.97;80.46
64230;BME280;50547;49.498;0.092;2022-12-08T06:06:33;1007;;;6.85;81.12
64230;BME280;50547;49.498;0.092;2022-12-08T06:09:03;1007;;;6.70;81.98
64230;BME280;50547;49.498;0.092;2022-12-08T06:11:33;1007;;;6.47;83.09
64230;BME280;50547;49.498;0.092;2022-12-08T06:14:02;1007;;;6.49;82.88
64230;BME280;50547;49.498;0.092;2022-12-08T06:16:31;1007;;;6.36;83.38
64230;BME280;50547;49.498;0.092;2022-12-08T06:19:01;1007;;;6.39;83.10
64230;BME280;50547;49.498;0.092;2022-12-08T06:21:30;1007;;;6.36;83.19
64230;BME280;50547;49.498;0.092;2022-12-08T06:24:00;1007;;;6.30;83.33
64230;BME280;50547;49.498;0.092;2022-12-08T06:26:29;1007;;;6.24;83.46
64230;BME280;50547;49.498;0.092;2022-12-08T06:28:58;1007;;;6.26;83.23
64230;BME280;50547;49.498;0.092;2022-12-08T06:31:28;1007;;;6.11;83.46
64230;BME280;50547;49.498;0.092;2022-12-08T06:33:57;1007;;;6.19;83.00
64230;BME280;50547;49.498;0.092;2022-12-08T06:36:27;1007;;;6.06;83.15
64230;BME280;50547;49.498;0.092;2022-12-08T06:38:57;1007;;;6.10;82.89
64230;BME280;50547;49.498;0.092;2022-12-08T06:41:26;1007;;;6.16;82.50
64230;BME280;50547;49.498;0.092;2022-12-08T06:43:56;1007;;;6.24;82.27
64230;BME280;50547;49.498;0.092;2022-12-08T06:46:26;1007;;;6.26;82.22
64230;BME280;50547;49.498;0.092;2022-12-08T06:48:56;1007;;;6.36;81.94
64230;BME280;50547;49.498;0.092;2022-12-08T06:51:26;1007;;;6.54;81.45
64230;BME280;50547;49.498;0.092;2022-12-08T06:53:55;1006;;;6.61;81.39
64230;BME280;50547;49.498;0.092;2022-12-08T06:56:25;1007;;;6.63;81.36
64230;BME280;50547;49.498;0.092;2022-12-08T06:58:55;1007;;;6.92;80.57
64230;BME280;50547;49.498;0.092;2022-12-08T07:01:24;1007;;;7.16;80.19
64230;BME280;50547;49.498;0.092;2022-12-08T07:03:53;1007;;;7.18;80.38
64230;BME280;50547;49.498;0.092;2022-12-08T07:06:23;1007;;;7.29;80.25
64230;BME280;50547;49.498;0.092;2022-12-08T07:08:53;1007;;;7.37;80.09
64230;BME280;50547;49.498;0.092;2022-12-08T07:11:22;1007;;;7.50;79.87
64230;BME280;50547;49.498;0.092;2022-12-08T07:13:52;1006;;;7.46;80.00
64230;BME280;50547;49.498;0.092;2022-12-08T07:16:23;1006;;;7.59;79.75
64230;BME280;50547;49.498;0.092;2022-12-08T07:18:53;1006;;;7.56;79.73
64230;BME280;50547;49.498;0.092;2022-12-08T07:21:22;1007;;;7.58;79.52
64230;BME280;50547;49.498;0.092;2022-12-08T07:23:51;1006;;;7.51;79.55
64230;BME280;50547;49.498;0.092;2022-12-08T07:26:21;1007;;;7.65;79.35
64230;BME280;50547;49.498;0.092;2022-12-08T07:28:50;1006;;;7.61;79.58
64230;BME280;50547;49.498;0.092;2022-12-08T07:31:21;1007;;;7.71;79.16
64230;BME280;50547;49.498;0.092;2022-12-08T07:33:51;1007;;;7.71;79.24
64230;BME280;50547;49.498;0.092;2022-12-08T07:36:22;1007;;;7.77;78.95
64230;BME280;50547;49.498;0.092;2022-12-08T07:38:52;1007;;;7.89;78.63
64230;BME280;50547;49.498;0.092;2022-12-08T07:41:24;1007;;;7.97;78.62
64230;BME280;50547;49.498;0.092;2022-12-08T07:43:55;1006;;;8.11;78.41
64230;BME280;50547;49.498;0.092;2022-12-08T07:46:25;1006;;;8.23;78.39
64230;BME280;50547;49.498;0.092;2022-12-08T07:49:05;1006;;;8.04;78.82
64230;BME280;50547;49.498;0.092;2022-12-08T07:51:35;1006;;;8.11;78.63
64230;BME280;50547;49.498;0.092;2022-12-08T07:54:04;1006;;;8.07;78.67
64230;BME280;50547;49.498;0.092;2022-12-08T07:56:34;1006;;;8.10;78.79
64230;BME280;50547;49.498;0.092;2022-12-08T07:59:03;1006;;;8.09;78.78
64230;BME280;50547;49.498;0.092;2022-12-08T08:01:33;1006;;;8.10;78.58
64230;BME280;50547;49.498;0.092;2022-12-08T08:04:02;1006;;;8.30;78.11
64230;BME280;50547;49.498;0.092;2022-12-08T08:06:33;1006;;;8.32;78.00
64230;BME280;50547;49.498;0.092;2022-12-08T08:09:00;1006;;;8.21;78.15
64230;BME280;50547;49.498;0.092;2022-12-08T08:11:29;1006;;;7.84;78.83
64230;BME280;50547;49.498;0.092;2022-12-08T08:13:59;1006;;;7.60;79.11
64230;BME280;50547;49.498;0.092;2022-12-08T08:16:28;1006;;;7.64;78.75
64230;BME280;50547;49.498;0.092;2022-12-08T08:19:03;1006;;;7.79;78.16
64230;BME280;50547;49.498;0.092;2022-12-08T08:21:32;1006;;;7.71;78.25
64230;BME280;50547;49.498;0.092;2022-12-08T08:24:01;1006;;;7.62;78.50
64230;BME280;50547;49.498;0.092;2022-12-08T08:26:31;1006;;;7.58;78.48
64230;BME280;50547;49.498;0.092;2022-12-08T08:28:56;1006;;;7.69;77.95
64230;BME280;50547;49.498;0.092;2022-12-08T08:31:26;1006;;;7.93;77.14
64230;BME280;50547;49.498;0.092;2022-12-08T08:33:56;1006;;;8.13;77.03
64230;BME280;50547;49.498;0.092;2022-12-08T08:36:24;1006;;;8.05;78.04
64230;BME280;50547;49.498;0.092;2022-12-08T08:38:53;1006;;;7.97;78.22
64230;BME280;50547;49.498;0.092;2022-12-08T08:41:22;1006;;;7.70;78.01
64230;BME280;50547;49.498;0.092;2022-12-08T08:43:53;1006;;;7.40;78.73
64230;BME280;50547;49.498;0.092;2022-12-08T08:46:23;1006;;;7.18;79.32
64230;BME280;50547;49.498;0.092;2022-12-08T08:48:52;1006;;;7.17;79.28
64230;BME280;50547;49.498;0.092;2022-12-08T08:51:22;1006;;;7.13;79.03
64230;BME280;50547;49.498;0.092;2022-12-08T08:53:52;1006;;;6.94;79.25
64230;BME280;50547;49.498;0.092;2022-12-08T08:56:21;1006;;;6.67;80.14
64230;BME280;50547;49.498;0.092;2022-12-08T08:58:52;1006;;;6.64;80.17
64230;BME280;50547;49.498;0.092;2022-12-08T09:01:23;1006;;;6.58;80.45
64230;BME280;50547;49.498;0.092;2022-12-08T09:03:53;1006;;;6.57;80.47
64230;BME280;50547;49.498;0.092;2022-12-08T09:06:23;1006;;;6.64;80.27
64230;BME280;50547;49.498;0.092;2022-12-08T09:08:53;1006;;;6.78;79.94
64230;BME280;50547;49.498;0.092;2022-12-08T09:11:19;1006;;;6.75;80.33
64230;BME280;50547;49.498;0.092;2022-12-08T09:13:47;1006;;;6.64;80.86
64230;BME280;50547;49.498;0.092;2022-12-08T09:16:17;1006;;;6.70;80.63
64230;BME280;50547;49.498;0.092;2022-12-08T09:18:47;1006;;;6.75;80.31
64230;BME280;50547;49.498;0.092;2022-12-08T09:21:18;1006;;;6.95;79.75
64230;BME280;50547;49.498;0.092;2022-12-08T09:23:48;1006;;;6.88;79.80
64230;BME280;50547;49.498;0.092;2022-12-08T09:26:18;1006;;;6.69;80.55
64230;BME280;50547;49.498;0.092;2022-12-08T09:28:47;1006;;;6.62;80.89
64230;BME280;50547;49.498;0.092;2022-12-08T09:31:18;1006;;;6.49;81.58
64230;BME280;50547;49.498;0.092;2022-12-08T09:33:48;1006;;;6.48;81.56
64230;BME280;50547;49.498;0.092;2022-12-08T09:36:18;1006;;;6.52;81.44
64230;BME280;50547;49.498;0.092;2022-12-08T09:38:48;1006;;;6.62;81.11
64230;BME280;50547;49.498;0.092;2022-12-08T09:41:25;1006;;;6.64;81.28
64230;BME280;50547;49.498;0.092;2022-12-08T09:44:05;1006;;;6.70;81.34
64230;BME280;50547;49.498;0.092;2022-12-08T09:46:41;1006;;;6.83;80.90
64230;BME280;50547;49.498;0.092;2022-12-08T09:49:15;1006;;;6.92;80.70
64230;BME280;50547;49.498;0.092;2022-12-08T09:51:46;1006;;;6.81;81.19
64230;BME280;50547;49.498;0.092;2022-12-08T09:54:19;1006;;;6.97;80.71
64230;BME280;50547;49.498;0.092;2022-12-08T09:56:51;1006;;;7.07;80.45
64230;BME280;50547;49.498;0.092;2022-12-08T09:59:22;1006;;;7.15;80.14
64230;BME280;50547;49.498;0.092;2022-12-08T10:02:25;1006;;;7.15;80.28
64230;BME280;50547;49.498;0.092;2022-12-08T10:04:56;1006;;;7.18;80.16
64230;BME280;50547;49.498;0.092;2022-12-08T10:07:32;1006;;;7.10;80.15
64230;BME280;50547;49.498;0.092;2022-12-08T10:10:14;1006;;;7.21;79.88
64230;BME280;50547;49.498;0.092;2022-12-08T10:12:54;1006;;;7.34;79.40
64230;BME280;50547;49.498;0.092;2022-12-08T10:15:46;1006;;;7.41;78.79
64230;BME280;50547;49.498;0.092;2022-12-08T10:18:22;1006;;;7.47;78.57
64230;BME280;50547;49.498;0.092;2022-12-08T10:20:58;1006;;;7.37;78.64
64230;BME280;50547;49.498;0.092;2022-12-08T10:23:30;1006;;;7.28;78.85
64230;BME280;50547;49.498;0.092;2022-12-08T10:26:03;1006;;;7.21;78.94
64230;BME280;50547;49.498;0.092;2022-12-08T10:28:33;1006;;;7.08;79.04
64230;BME280;50547;49.498;0.092;2022-12-08T10:31:02;1006;;;7.01;79.07
64230;BME280;50547;49.498;0.092;2022-12-08T10:33:32;1006;;;6.64;80.52
64230;BME280;50547;49.498;0.092;2022-12-08T10:36:02;1006;;;6.56;80.67
64230;BME280;50547;49.498;0.092;2022-12-08T10:38:32;1006;;;6.62;80.02
64230;BME280;50547;49.498;0.092;2022-12-08T10:41:05;1006;;;6.68;79.76
64230;BME280;50547;49.498;0.092;2022-12-08T10:43:37;1006;;;6.73;79.55
64230;BME280;50547;49.498;0.092;2022-12-08T10:46:09;1006;;;6.71;79.85
64230;BME280;50547;49.498;0.092;2022-12-08T10:48:49;1006;;;6.64;79.69
64230;BME280;50547;49.498;0.092;2022-12-08T10:51:27;1005;;;6.63;79.97
64230;BME280;50547;49.498;0.092;2022-12-08T10:53:57;1005;;;6.69;80.13
64230;BME280;50547;49.498;0.092;2022-12-08T10:56:27;1005;;;6.71;80.24
64230;BME280;50547;49.498;0.092;2022-12-08T10:59:10;1005;;;6.68;80.28
64230;BME280;50547;49.498;0.092;2022-12-08T11:01:41;1005;;;6.83;79.51
64230;BME280;50547;49.498;0.092;2022-12-08T11:04:16;1005;;;7.05;78.84
64230;BME280;50547;49.498;0.092;2022-12-08T11:06:47;1005;;;7.28;78.44
64230;BME280;50547;49.498;0.092;2022-12-08T11:09:24;1005;;;7.50;78.43
64230;BME280;50547;49.498;0.092;2022-12-08T11:12:00;1005;;;7.63;78.11
64230;BME280;50547;49.498;0.092;2022-12-08T11:14:46;1005;;;7.84;77.80
64230;BME280;50547;49.498;0.092;2022-12-08T11:17:22;1005;;;7.95;77.64
64230;BME280;50547;49.498;0.092;2022-12-08T11:19:56;1005;;;8.02;77.46
64230;BME280;50547;49.498;0.092;2022-12-08T11:22:29;1005;;;8.17;77.32
64230;BME280;50547;49.498;0.092;2022-12-08T11:25:07;1005;;;8.25;76.88
64230;BME280;50547;49.498;0.092;2022-12-08T11:27:34;1005;;;8.10;77.42
64230;BME280;50547;49.498;0.092;2022-12-08T11:30:13;1005;;;8.26;76.92
64230;BME280;50547;49.498;0.092;2022-12-08T11:32:44;1005;;;8.34;76.92
64230;BME280;50547;49.498;0.092;2022-12-08T11:35:21;1005;;;8.31;76.67
64230;BME280;50547;49.498;0.092;2022-12-08T11:37:52;1005;;;8.16;76.58
64230;BME280;50547;49.498;0.092;2022-12-08T11:40:25;1005;;;8.25;76.81
64230;BME280;50547;49.498;0.092;2022-12-08T11:43:05;1005;;;8.29;76.99
64230;BME280;50547;49.498;0.092;2022-12-08T11:45:37;1005;;;8.34;76.72
64230;BME280;50547;49.498;0.092;2022-12-08T11:48:12;1005;;;8.34;76.89
64230;BME280;50547;49.498;0.092;2022-12-08T11:50:48;1005;;;8.45;76.61
64230;BME280;50547;49.498;0.092;2022-12-08T11:53:26;1005;;;8.35;76.84
64230;BME280;50547;49.498;0.092;2022-12-08T11:55:59;1005;;;8.34;76.85
64230;BME280;50547;49.498;0.092;2022-12-08T11:58:37;1005;;;8.55;76.16
64230;BME280;50547;49.498;0.092;2022-12-08T12:01:17;1005;;;8.55;76.24
64230;BME280;50547;49.498;0.092;2022-12-08T12:03:53;1005;;;8.84;75.73
64230;BME280;50547;49.498;0.092;2022-12-08T12:06:42;1005;;;9.15;75.01
64230;BME280;50547;49.498;0.092;2022-12-08T12:09:24;1005;;;9.29;74.78
64230;BME280;50547;49.498;0.092;2022-12-08T12:12:07;1005;;;9.53;74.63
64230;BME280;50547;49.498;0.092;2022-12-08T12:15:06;1005;;;9.70;74.42
64230;BME280;50547;49.498;0.092;2022-12-08T12:17:46;1005;;;9.73;74.61
64230;BME280;50547;49.498;0.092;2022-12-08T12:20:20;1005;;;9.74;74.54
64230;BME280;50547;49.498;0.092;2022-12-08T12:23:01;1005;;;9.85;74.44
64230;BME280;50547;49.498;0.092;2022-12-08T12:25:34;1005;;;9.93;74.39
64230;BME280;50547;49.498;0.092;2022-12-08T12:28:05;1005;;;9.89;74.37
64230;BME280;50547;49.498;0.092;2022-12-08T12:30:51;1005;;;9.81;74.50
64230;BME280;50547;49.498;0.092;2022-12-08T12:33:22;1005;;;9.46;75.06
64230;BME280;50547;49.498;0.092;2022-12-08T12:35:55;1005;;;9.57;74.64
64230;BME280;50547;49.498;0.092;2022-12-08T12:38:28;1005;;;9.67;74.10
64230;BME280;50547;49.498;0.092;2022-12-08T12:41:02;1005;;;9.69;74.06
64230;BME280;50547;49.498;0.092;2022-12-08T12:43:35;1005;;;9.76;73.91
64230;BME280;50547;49.498;0.092;2022-12-08T12:46:39;1004;;;9.83;73.78
64230;BME280;50547;49.498;0.092;2022-12-08T12:50:14;1005;;;9.88;73.73
64230;BME280;50547;49.498;0.092;2022-12-08T12:53:46;1004;;;9.94;73.37
64230;BME280;50547;49.498;0.092;2022-12-08T12:56:50;1004;;;10.12;73.29
64230;BME280;50547;49.498;0.092;2022-12-08T12:59:31;1004;;;10.20;73.06
64230;BME280;50547;49.498;0.092;2022-12-08T13:02:02;1004;;;10.02;73.28
64230;BME280;50547;49.498;0.092;2022-12-08T13:04:34;1004;;;9.93;73.14
64230;BME280;50547;49.498;0.092;2022-12-08T13:07:04;1004;;;10.05;73.03
64230;BME280;50547;49.498;0.092;2022-12-08T13:09:36;1004;;;10.10;72.57
64230;BME280;50547;49.498;0.092;2022-12-08T13:12:20;1004;;;10.19;72.40
64230;BME280;50547;49.498;0.092;2022-12-08T13:15:02;1004;;;10.32;72.15
64230;BME280;50547;49.498;0.092;2022-12-08T13:17:35;1004;;;10.39;71.88
64230;BME280;50547;49.498;0.092;2022-12-08T13:20:06;1004;;;10.17;71.77
64230;BME280;50547;49.498;0.092;2022-12-08T13:23:10;1004;;;10.02;72.16
64230;BME280;50547;49.498;0.092;2022-12-08T13:25:48;1004;;;9.87;72.29
64230;BME280;50547;49.498;0.092;2022-12-08T13:28:22;1004;;;9.74;72.31
64230;BME280;50547;49.498;0.092;2022-12-08T13:30:53;1004;;;9.78;72.07
64230;BME280;50547;49.498;0.092;2022-12-08T13:33:31;1004;;;9.71;71.68
64230;BME280;50547;49.498;0.092;2022-12-08T13:36:10;1004;;;9.51;72.18
64230;BME280;50547;49.498;0.092;2022-12-08T13:38:42;1004;;;9.60;71.45
64230;BME280;50547;49.498;0.092;2022-12-08T13:41:18;1004;;;9.43;71.43
64230;BME280;50547;49.498;0.092;2022-12-08T13:43:52;1004;;;9.22;71.91
64230;BME280;50547;49.498;0.092;2022-12-08T13:46:28;1004;;;9.17;71.69
64230;BME280;50547;49.498;0.092;2022-12-08T13:49:01;1004;;;8.67;72.64
64230;BME280;50547;49.498;0.092;2022-12-08T13:51:39;1004;;;8.79;72.55
64230;BME280;50547;49.498;0.092;2022-12-08T13:54:19;1004;;;8.85;72.00
64230;BME280;50547;49.498;0.092;2022-12-08T13:56:50;1004;;;8.67;72.47
64230;BME280;50547;49.498;0.092;2022-12-08T13:59:26;1004;;;8.48;73.10
64230;BME280;50547;49.498;0.092;2022-12-08T14:01:59;1004;;;8.36;71.99
64230;BME280;50547;49.498;0.092;2022-12-08T14:04:49;1004;;;8.30;73.16
64230;BME280;50547;49.498;0.092;2022-12-08T14:07:15;1004;;;8.47;72.28
64230;BME280;50547;49.498;0.092;2022-12-08T14:09:42;1004;;;8.50;72.38
64230;BME280;50547;49.498;0.092;2022-12-08T14:12:17;1004;;;8.39;72.66
64230;BME280;50547;49.498;0.092;2022-12-08T14:14:50;1004;;;8.62;71.99
64230;BME280;50547;49.498;0.092;2022-12-08T14:17:21;1004;;;8.88;71.49
64230;BME280;50547;49.498;0.092;2022-12-08T14:19:54;1004;;;9.07;71.35
64230;BME280;50547;49.498;0.092;2022-12-08T14:22:21;1004;;;8.96;71.42
64230;BME280;50547;49.498;0.092;2022-12-08T14:24:50;1004;;;8.94;71.54
64230;BME280;50547;49.498;0.092;2022-12-08T14:27:20;1004;;;8.89;71.02
64230;BME280;50547;49.498;0.092;2022-12-08T14:29:51;1004;;;8.65;70.92
64230;BME280;50547;49.498;0.092;2022-12-08T14:32:25;1004;;;8.48;71.36